createdAt,value
2022-09-07T00:01:51.307Z,19.75
2022-09-07T00:04:20.880Z,19.70
2022-09-07T00:06:47.381Z,19.74
2022-09-07T00:09:13.790Z,19.75
2022-09-07T00:11:40.181Z,19.76
2022-09-07T00:14:07.659Z,19.74
2022-09-07T00:16:34.360Z,19.70
2022-09-07T00:28:13.594Z,19.58
2022-09-07T00:30:42.837Z,19.55
2022-09-07T00:33:09.913Z,19.45
2022-09-07T00:35:40.958Z,19.41
2022-09-07T00:38:07.784Z,19.41
2022-09-07T00:40:34.762Z,19.44
2022-09-07T00:43:01.309Z,19.44
2022-09-07T00:45:27.789Z,19.47
2022-09-07T00:48:06.793Z,19.48
2022-09-07T00:50:39.747Z,19.47
2022-09-07T00:53:55.342Z,19.38
2022-09-07T00:56:24.605Z,19.27
2022-09-07T00:58:51.914Z,19.14
2022-09-07T01:01:18.690Z,19.02
2022-09-07T01:03:50.880Z,19.03
2022-09-07T01:06:30.865Z,19.02
2022-09-07T01:09:03.394Z,19.09
2022-09-07T01:11:33.802Z,19.14
2022-09-07T01:14:03.297Z,19.08
2022-09-07T01:16:54.257Z,18.96
2022-09-07T01:19:26.480Z,18.85
2022-09-07T01:22:41.693Z,18.68
2022-09-07T01:25:19.283Z,18.60
2022-09-07T01:28:10.596Z,18.64
2022-09-07T01:30:39.198Z,18.71
2022-09-07T01:33:19.982Z,18.83
2022-09-07T01:36:26.960Z,18.76
2022-09-07T01:38:56.178Z,18.70
2022-09-07T01:41:35.793Z,18.69
2022-09-07T01:44:05.886Z,18.70
2022-09-07T01:46:42.397Z,18.75
2022-09-07T01:49:31.858Z,18.83
2022-09-07T01:52:07.830Z,18.93
2022-09-07T01:55:02.261Z,19.01
2022-09-07T01:57:38.154Z,18.98
2022-09-07T02:00:10.904Z,18.98
2022-09-07T02:02:48.817Z,18.94
2022-09-07T02:06:01.611Z,18.95
2022-09-07T02:08:43.687Z,18.98
2022-09-07T02:11:34.805Z,19.06
2022-09-07T02:14:07.506Z,19.10
2022-09-07T02:16:39.648Z,19.10
2022-09-07T02:19:13.182Z,19.10
2022-09-07T02:21:44.397Z,19.11
2022-09-07T02:24:26.125Z,19.09
2022-09-07T02:26:54.583Z,19.06
2022-09-07T02:29:21.477Z,19.09
2022-09-07T02:31:48.458Z,19.13
2022-09-07T02:34:14.919Z,19.15
2022-09-07T02:36:45.228Z,19.14
2022-09-07T02:39:13.165Z,19.16
2022-09-07T02:41:44.578Z,19.12
2022-09-07T02:44:16.425Z,19.15
2022-09-07T02:46:51.462Z,19.18
2022-09-07T02:49:33.489Z,19.20
2022-09-07T02:52:25.780Z,19.22
2022-09-07T02:54:58.212Z,19.23
2022-09-07T02:57:33.788Z,19.25
2022-09-07T03:00:11.255Z,19.23
2022-09-07T03:02:51.375Z,19.23
2022-09-07T03:05:25.873Z,19.23
2022-09-07T03:07:59.333Z,19.24
2022-09-07T03:10:26.609Z,19.24
2022-09-07T03:12:53.016Z,19.23
2022-09-07T03:15:23.364Z,19.18
2022-09-07T03:17:50.002Z,19.17
2022-09-07T03:20:17.529Z,19.16
2022-09-07T03:22:47.994Z,19.15
2022-09-07T03:25:15.234Z,19.14
2022-09-07T03:27:42.233Z,19.13
2022-09-07T03:30:10.770Z,19.11
2022-09-07T03:32:38.504Z,19.07
2022-09-07T03:35:07.636Z,19.03
2022-09-07T03:37:37.466Z,19.02
2022-09-07T03:40:07.221Z,19.00
2022-09-07T03:42:33.770Z,18.97
2022-09-07T03:45:00.226Z,18.94
2022-09-07T03:47:26.759Z,18.93
2022-09-07T03:49:53.237Z,18.93
2022-09-07T03:52:19.644Z,18.93
2022-09-07T03:54:46.326Z,18.90
2022-09-07T03:57:13.229Z,18.89
2022-09-07T03:59:39.670Z,18.88
2022-09-07T04:02:06.106Z,18.87
2022-09-07T04:04:32.567Z,18.86
2022-09-07T04:06:58.965Z,18.83
2022-09-07T04:09:25.432Z,18.80
2022-09-07T04:11:51.861Z,18.78
2022-09-07T04:14:18.260Z,18.75
2022-09-07T04:16:45.428Z,18.74
2022-09-07T04:19:11.958Z,18.71
2022-09-07T04:21:38.497Z,18.71
2022-09-07T04:24:05.277Z,18.69
2022-09-07T04:26:34.320Z,18.66
2022-09-07T04:29:01.694Z,18.66
2022-09-07T04:31:28.599Z,18.65
2022-09-07T04:33:56.081Z,18.64
2022-09-07T04:36:24.704Z,18.63
2022-09-07T04:38:56.332Z,18.62
2022-09-07T04:41:23.461Z,18.59
2022-09-07T04:43:54.289Z,18.57
2022-09-07T04:46:26.137Z,18.56
2022-09-07T04:48:57.885Z,18.54
2022-09-07T04:51:27.636Z,18.52
2022-09-07T04:53:55.436Z,18.48
2022-09-07T04:56:22.741Z,18.44
2022-09-07T04:58:49.732Z,18.44
2022-09-07T05:01:19.184Z,18.41
2022-09-07T05:03:46.331Z,18.37
2022-09-07T05:06:13.192Z,18.33
2022-09-07T05:08:42.594Z,18.30
2022-09-07T05:11:10.254Z,18.27
2022-09-07T05:13:37.121Z,18.27
2022-09-07T05:16:18.762Z,18.28
2022-09-07T05:18:49.858Z,18.29
2022-09-07T05:21:28.208Z,18.28
2022-09-07T05:23:56.410Z,18.27
2022-09-07T05:26:24.729Z,18.25
2022-09-07T05:28:51.342Z,18.26
2022-09-07T05:31:21.067Z,18.25
2022-09-07T05:36:36.049Z,18.26
2022-09-07T05:39:03.586Z,18.24
2022-09-07T05:41:30.107Z,18.22
2022-09-07T05:46:43.209Z,18.20
2022-09-07T05:49:09.930Z,18.20
2022-09-07T05:51:37.177Z,18.20
2022-09-07T05:54:04.062Z,18.19
2022-09-07T05:56:30.490Z,18.19
2022-09-07T05:58:56.929Z,18.21
2022-09-07T06:01:23.367Z,18.19
2022-09-07T06:03:49.782Z,18.16
2022-09-07T06:06:18.808Z,18.19
2022-09-07T06:08:47.860Z,18.23
2022-09-07T06:11:17.288Z,18.27
2022-09-07T06:13:44.211Z,18.29
2022-09-07T06:16:12.130Z,18.29
2022-09-07T06:18:43.936Z,18.32
2022-09-07T06:21:11.717Z,18.37
2022-09-07T06:23:40.126Z,18.35
2022-09-07T06:26:07.718Z,18.36
2022-09-07T06:28:36.982Z,18.35
2022-09-07T06:31:14.899Z,18.32
2022-09-07T06:33:42.785Z,18.29
2022-09-07T06:36:23.730Z,18.25
2022-09-07T06:38:51.349Z,18.23
2022-09-07T06:44:09.427Z,18.21
2022-09-07T06:49:23.634Z,18.21
2022-09-07T06:51:50.208Z,18.20
2022-09-07T06:57:09.082Z,18.23
2022-09-07T06:59:37.121Z,18.25
2022-09-07T07:02:04.464Z,18.20
2022-09-07T07:04:31.098Z,18.19
2022-09-07T07:06:57.802Z,18.23
2022-09-07T07:09:24.296Z,18.29
2022-09-07T07:11:50.708Z,18.29
2022-09-07T07:14:17.965Z,18.30
2022-09-07T07:16:44.823Z,18.31
2022-09-07T07:19:11.335Z,18.25
2022-09-07T07:21:55.210Z,18.25
2022-09-07T07:24:24.127Z,18.28
2022-09-07T07:26:50.564Z,18.29
2022-09-07T07:29:18.833Z,18.29
2022-09-07T07:31:46.834Z,18.29
2022-09-07T07:34:13.311Z,18.31
2022-09-07T07:36:39.748Z,18.36
2022-09-07T07:39:06.105Z,18.35
2022-09-07T07:44:20.609Z,18.39
2022-09-07T07:46:49.024Z,18.45
2022-09-07T07:49:15.916Z,18.43
2022-09-07T07:54:29.351Z,18.42
2022-09-07T07:56:55.707Z,18.44
2022-09-07T07:59:22.091Z,18.48
2022-09-07T08:01:48.600Z,18.50
2022-09-07T08:04:15.494Z,18.53
2022-09-07T08:06:42.783Z,18.54
2022-09-07T08:09:09.508Z,18.63
2022-09-07T08:11:35.888Z,18.69
2022-09-07T08:14:06.118Z,18.73
2022-09-07T08:16:33.957Z,18.77
2022-09-07T08:19:01.526Z,18.76
2022-09-07T08:21:28.169Z,18.66
2022-09-07T08:23:55.260Z,18.63
2022-09-07T08:26:21.665Z,18.72
2022-09-07T08:28:48.369Z,18.79
2022-09-07T08:31:16.923Z,18.86
2022-09-07T08:33:44.148Z,18.93
2022-09-07T08:36:19.345Z,18.96
2022-09-07T08:38:46.894Z,18.97
2022-09-07T08:41:22.321Z,19.01
2022-09-07T08:44:02.465Z,19.11
2022-09-07T08:46:38.250Z,19.14
2022-09-07T08:49:07.142Z,19.15
2022-09-07T08:51:43.405Z,19.17
2022-09-07T08:54:16.285Z,19.22
2022-09-07T08:59:38.940Z,19.15
2022-09-07T09:02:32.572Z,19.23
2022-09-07T09:05:17.335Z,19.34
2022-09-07T09:07:59.679Z,19.41
2022-09-07T09:10:46.815Z,19.43
2022-09-07T09:13:30.419Z,19.51
2022-09-07T09:16:04.974Z,19.55
2022-09-07T09:18:50.149Z,19.61
2022-09-07T09:21:18.699Z,19.65
2022-09-07T09:23:48.751Z,19.72
2022-09-07T09:26:23.797Z,19.76
2022-09-07T09:28:50.494Z,19.83
2022-09-07T09:31:23.621Z,19.87
2022-09-07T09:34:05.162Z,19.94
2022-09-07T09:36:44.212Z,20.00
2022-09-07T09:39:29.346Z,19.99
2022-09-07T09:41:59.269Z,20.01
2022-09-07T09:44:32.861Z,20.05
2022-09-07T09:49:47.925Z,20.06
2022-09-07T09:52:29.773Z,20.13
2022-09-07T09:55:03.390Z,20.18
2022-09-07T10:03:58.482Z,20.24
2022-09-07T10:06:28.086Z,20.27
2022-09-07T10:09:02.346Z,20.32
2022-09-07T10:14:33.078Z,20.54
2022-09-07T10:17:02.085Z,20.62
2022-09-07T10:19:38.015Z,20.57
2022-09-07T10:22:20.688Z,20.57
2022-09-07T10:24:47.198Z,20.62
2022-09-07T10:27:40.856Z,20.53
2022-09-07T10:30:14.818Z,20.42
2022-09-07T10:32:53.282Z,20.37
2022-09-07T10:35:27.809Z,20.38
2022-09-07T10:38:15.291Z,20.53
2022-09-07T10:40:52.661Z,20.59
2022-09-07T10:43:44.412Z,20.62
2022-09-07T10:46:57.580Z,20.67
2022-09-07T10:49:34.724Z,20.73
2022-09-07T10:52:17.590Z,20.69
2022-09-07T10:54:46.641Z,20.63
2022-09-07T10:57:49.136Z,20.68
2022-09-07T11:00:18.516Z,20.65
2022-09-07T11:03:26.499Z,20.73
2022-09-07T11:06:17.632Z,20.86
2022-09-07T11:12:03.083Z,21.05
2022-09-07T11:14:36.641Z,21.07
2022-09-07T11:17:12.982Z,21.13
2022-09-07T11:19:49.714Z,21.20
2022-09-07T11:22:27.719Z,21.24
2022-09-07T11:27:57.565Z,21.17
2022-09-07T11:30:31.822Z,21.10
2022-09-07T11:33:03.357Z,21.10
2022-09-07T11:35:51.506Z,21.12
2022-09-07T11:38:33.521Z,21.14
2022-09-07T11:41:14.939Z,20.98
2022-09-07T11:43:46.233Z,20.92
2022-09-07T11:46:38.645Z,20.95
2022-09-07T11:49:12.526Z,21.01
2022-09-07T11:51:53.550Z,21.13
2022-09-07T11:54:38.385Z,21.27
2022-09-07T11:57:26.037Z,21.40
2022-09-07T12:00:10.959Z,21.45
2022-09-07T12:02:58.112Z,21.59
2022-09-07T12:05:54.714Z,21.69
2022-09-07T12:08:44.848Z,21.77
2022-09-07T12:11:35.738Z,21.90
2022-09-07T12:14:13.197Z,21.88
2022-09-07T12:17:01.415Z,21.79
2022-09-07T12:19:28.462Z,21.72
2022-09-07T12:21:54.743Z,21.71
2022-09-07T12:24:42.713Z,21.66
2022-09-07T12:27:21.481Z,21.63
2022-09-07T12:29:49.461Z,21.58
2022-09-07T12:32:57.145Z,21.63
2022-09-07T12:35:33.609Z,21.86
2022-09-07T12:38:06.610Z,21.91
2022-09-07T12:40:36.025Z,21.95
2022-09-07T12:43:14.746Z,21.90
2022-09-07T12:45:48.128Z,21.98
2022-09-07T12:48:17.527Z,22.16
2022-09-07T12:51:06.120Z,22.24
2022-09-07T12:54:10.177Z,22.21
2022-09-07T13:00:12.567Z,22.47
2022-09-07T13:02:57.745Z,22.49
2022-09-07T13:05:54.135Z,22.51
2022-09-07T13:08:53.669Z,22.53
2022-09-07T13:11:19.972Z,22.57
2022-09-07T13:14:26.677Z,22.57
2022-09-07T13:17:30.456Z,22.59
2022-09-07T13:19:56.914Z,22.53
2022-09-07T13:22:29.188Z,22.47
2022-09-07T13:25:00.386Z,22.58
2022-09-07T13:27:28.799Z,22.58
2022-09-07T13:29:59.258Z,22.56
2022-09-07T13:35:24.321Z,22.66
2022-09-07T13:38:00.874Z,22.71
2022-09-07T13:40:39.038Z,22.63
2022-09-07T13:43:13.620Z,22.49
2022-09-07T13:45:55.045Z,22.52
2022-09-07T13:48:33.762Z,22.58
2022-09-07T13:51:16.202Z,22.64
2022-09-07T13:54:27.660Z,22.69
2022-09-07T13:57:03.674Z,22.66
2022-09-07T13:59:34.935Z,22.60
2022-09-07T14:02:01.958Z,22.49
2022-09-07T14:04:37.231Z,22.50
2022-09-07T14:07:20.569Z,22.56
2022-09-07T14:09:48.875Z,22.59
2022-09-07T14:12:19.033Z,22.65
2022-09-07T14:14:45.732Z,22.63
2022-09-07T14:17:15.392Z,22.63
2022-09-07T14:19:48.942Z,22.66
2022-09-07T14:22:18.743Z,22.64
2022-09-07T14:24:51.698Z,22.68
2022-09-07T14:27:42.077Z,22.67
2022-09-07T14:30:23.708Z,22.63
2022-09-07T14:32:53.873Z,22.66
2022-09-07T14:35:23.034Z,22.63
2022-09-07T14:37:50.584Z,22.64
2022-09-07T14:40:22.694Z,22.66
2022-09-07T14:42:50.759Z,22.68
2022-09-07T14:45:18.306Z,22.68
2022-09-07T14:47:47.021Z,22.66
2022-09-07T14:50:38.249Z,22.65
2022-09-07T14:56:10.789Z,22.67
2022-09-07T14:58:37.238Z,22.68
2022-09-07T15:04:02.525Z,22.68
2022-09-07T15:09:38.487Z,22.65
2022-09-07T15:12:17.997Z,22.57
2022-09-07T15:14:44.957Z,22.56
2022-09-07T15:20:39.626Z,22.55
2022-09-07T15:23:17.034Z,22.58
2022-09-07T15:25:50.911Z,22.57
2022-09-07T15:34:10.230Z,22.47
2022-09-07T15:36:46.785Z,22.53
2022-09-07T15:39:17.369Z,22.58
2022-09-07T15:41:44.242Z,22.62
2022-09-07T15:44:10.755Z,22.67
2022-09-07T15:46:37.372Z,22.70
2022-09-07T15:49:04.669Z,22.67
2022-09-07T15:54:17.466Z,22.68
2022-09-07T15:57:47.654Z,22.66
2022-09-07T15:59:30.262Z,22.60
2022-09-07T16:01:57.398Z,22.58
2022-09-07T16:04:24.693Z,22.55
2022-09-07T16:06:51.313Z,22.55
2022-09-07T16:09:21.444Z,22.57
2022-09-07T16:11:50.045Z,22.56
2022-09-07T16:14:17.423Z,22.55
2022-09-07T16:19:30.447Z,22.43
2022-09-07T16:21:57.609Z,22.40
2022-09-07T16:24:24.234Z,22.41
2022-09-07T16:26:50.609Z,22.46
2022-09-07T16:29:17.884Z,22.45
2022-09-07T16:34:30.781Z,22.42
2022-09-07T16:36:57.329Z,22.41
2022-09-07T16:39:23.712Z,22.39
2022-09-07T16:41:50.503Z,22.40
2022-09-07T16:44:16.978Z,22.43
2022-09-07T16:46:43.487Z,22.43
2022-09-07T16:49:11.365Z,22.43
2022-09-07T16:51:39.742Z,22.44
2022-09-07T16:54:06.916Z,22.44
2022-09-07T16:56:38.280Z,22.42
2022-09-07T16:59:07.090Z,22.42
2022-09-07T17:01:34.937Z,22.40
2022-09-07T17:04:05.428Z,22.35
2022-09-07T17:06:34.561Z,22.36
2022-09-07T17:09:00.952Z,22.31
2022-09-07T17:11:31.152Z,22.29
2022-09-07T17:13:58.951Z,22.29
2022-09-07T17:16:34.598Z,22.28
2022-09-07T17:21:51.682Z,22.25
2022-09-07T17:24:19.704Z,22.24
2022-09-07T17:26:46.294Z,22.24
2022-09-07T17:29:13.100Z,22.24
2022-09-07T17:34:26.236Z,22.20
2022-09-07T17:36:52.668Z,22.19
2022-09-07T17:39:19.639Z,22.16
2022-09-07T17:41:52.554Z,22.14
2022-09-07T17:44:19.664Z,22.13
2022-09-07T17:46:46.085Z,22.12
2022-09-07T17:49:14.180Z,22.10
2022-09-07T17:51:40.787Z,22.10
2022-09-07T17:54:11.750Z,22.09
2022-09-07T17:56:39.937Z,22.05
2022-09-07T18:01:56.463Z,22.00
2022-09-07T18:04:23.423Z,21.96
2022-09-07T18:06:50.552Z,21.92
2022-09-07T18:09:19.735Z,21.89
2022-09-07T18:11:48.231Z,21.87
2022-09-07T18:14:15.644Z,21.85
2022-09-07T18:16:43.503Z,21.81
2022-09-07T18:19:11.174Z,21.78
2022-09-07T18:21:38.226Z,21.73
2022-09-07T18:24:20.443Z,21.70
2022-09-07T18:26:51.547Z,21.68
2022-09-07T18:29:29.534Z,21.66
2022-09-07T18:31:59.028Z,21.68
2022-09-07T18:34:25.614Z,21.69
2022-09-07T18:39:18.725Z,21.64
2022-09-07T18:41:45.141Z,21.63
2022-09-07T18:46:57.944Z,21.60
2022-09-07T18:49:25.054Z,21.56
2022-09-07T18:54:39.144Z,21.49
2022-09-07T18:57:06.670Z,21.45
2022-09-07T18:59:34.011Z,21.44
2022-09-07T19:02:04.370Z,21.45
2022-09-07T19:07:18.002Z,21.44
2022-09-07T19:09:44.488Z,21.44
2022-09-07T19:12:11.026Z,21.44
2022-09-07T19:14:37.640Z,21.43
2022-09-07T19:17:04.068Z,21.39
2022-09-07T19:19:30.639Z,21.37
2022-09-07T19:21:58.134Z,21.33
2022-09-07T19:24:25.600Z,21.25
2022-09-07T19:26:53.846Z,21.25
2022-09-07T19:29:23.270Z,21.22
2022-09-07T19:32:04.653Z,21.23
2022-09-07T19:34:34.827Z,21.25
2022-09-07T19:37:01.890Z,21.26
2022-09-07T19:39:28.727Z,21.26
2022-09-07T19:41:55.433Z,21.26
2022-09-07T19:44:21.915Z,21.24
2022-09-07T19:46:48.704Z,21.22
2022-09-07T19:49:15.219Z,21.21
2022-09-07T19:51:42.470Z,21.21
2022-09-07T19:54:10.374Z,21.21
2022-09-07T19:56:38.396Z,21.20
2022-09-07T19:59:04.917Z,21.20
2022-09-07T20:01:31.527Z,21.19
2022-09-07T20:04:04.069Z,21.17
2022-09-07T20:06:32.713Z,21.16
2022-09-07T20:09:01.118Z,21.16
2022-09-07T20:11:28.576Z,21.16
2022-09-07T20:13:56.827Z,21.17
2022-09-07T20:16:24.405Z,21.15
2022-09-07T20:18:50.865Z,21.14
2022-09-07T20:21:22.213Z,21.15
2022-09-07T20:23:48.702Z,21.15
2022-09-07T20:26:17.524Z,21.16
2022-09-07T20:28:44.424Z,21.20
2022-09-07T20:31:13.757Z,21.21
2022-09-07T20:33:42.222Z,21.23
2022-09-07T20:36:11.819Z,21.24
2022-09-07T20:38:43.188Z,21.27
2022-09-07T20:41:14.908Z,21.30
2022-09-07T20:43:41.313Z,21.32
2022-09-07T20:46:09.584Z,21.33
2022-09-07T20:48:39.867Z,21.36
2022-09-07T20:51:09.607Z,21.36
2022-09-07T20:53:36.825Z,21.38
2022-09-07T20:56:07.718Z,21.37
2022-09-07T20:58:35.206Z,21.38
2022-09-07T21:01:02.773Z,21.35
2022-09-07T21:03:29.368Z,21.35
2022-09-07T21:06:00.850Z,21.36
2022-09-07T21:08:27.217Z,21.36
2022-09-07T21:10:53.641Z,21.34
2022-09-07T21:13:19.982Z,21.33
2022-09-07T21:15:46.382Z,21.31
2022-09-07T21:18:16.433Z,21.32
2022-09-07T21:20:57.861Z,21.31
2022-09-07T21:23:31.970Z,21.32
2022-09-07T21:25:58.898Z,21.30
2022-09-07T21:28:26.679Z,21.28
2022-09-07T21:31:01.718Z,21.28
2022-09-07T21:33:29.527Z,21.26
2022-09-07T21:35:56.035Z,21.25
2022-09-07T21:38:23.288Z,21.26
2022-09-07T21:40:49.748Z,21.25
2022-09-07T21:43:16.657Z,21.26
2022-09-07T21:45:43.101Z,21.25
2022-09-07T21:48:09.555Z,21.24
2022-09-07T21:50:35.893Z,21.22
2022-09-07T21:53:02.249Z,21.20
2022-09-07T21:55:28.618Z,21.17
2022-09-07T21:57:54.964Z,21.15
2022-09-07T22:00:22.655Z,21.15
2022-09-07T22:02:50.920Z,21.17
2022-09-07T22:05:17.398Z,21.16
2022-09-07T22:07:43.805Z,21.14
2022-09-07T22:10:10.390Z,21.10
2022-09-07T22:12:36.761Z,21.07
2022-09-07T22:15:03.596Z,21.04
2022-09-07T22:17:29.975Z,21.04
2022-09-07T22:19:56.304Z,21.04
2022-09-07T22:22:22.697Z,21.08
2022-09-07T22:24:49.079Z,21.09
2022-09-07T22:27:15.481Z,21.11
2022-09-07T22:29:41.879Z,21.10
2022-09-07T22:32:08.240Z,21.07
2022-09-07T22:34:34.597Z,21.02
2022-09-07T22:37:00.950Z,21.00
2022-09-07T22:39:27.501Z,21.02
2022-09-07T22:41:53.927Z,21.02
2022-09-07T22:44:20.301Z,20.96
2022-09-07T22:46:47.926Z,20.91
2022-09-07T22:49:16.809Z,20.89
2022-09-07T22:51:44.268Z,20.88
2022-09-07T22:54:11.254Z,20.86
2022-09-07T22:56:38.286Z,20.86
2022-09-07T22:59:07.499Z,20.86
2022-09-07T23:01:35.094Z,20.85
2022-09-07T23:04:02.386Z,20.85
2022-09-07T23:06:37.765Z,20.82
2022-09-07T23:09:07.486Z,20.79
2022-09-07T23:11:33.894Z,20.79
2022-09-07T23:14:04.561Z,20.79
2022-09-07T23:16:31.393Z,20.78
2022-09-07T23:18:59.258Z,20.75
2022-09-07T23:21:27.186Z,20.71
2022-09-07T23:23:55.738Z,20.72
2022-09-07T23:26:26.193Z,20.72
2022-09-07T23:28:54.000Z,20.73
2022-09-07T23:31:21.414Z,20.72
2022-09-07T23:33:47.948Z,20.70
2022-09-07T23:36:14.351Z,20.67
2022-09-07T23:38:40.713Z,20.61
2022-09-07T23:41:07.134Z,20.58
2022-09-07T23:43:33.660Z,20.59
2022-09-07T23:46:00.211Z,20.58
2022-09-07T23:48:26.757Z,20.56
2022-09-07T23:50:53.234Z,20.55
2022-09-07T23:53:19.893Z,20.53
2022-09-07T23:55:49.966Z,20.52
2022-09-07T23:58:16.380Z,20.49
